sensor_id;sensor_type;location;lat;lon;timestamp;P1;durP1;ratioP1;P2;durP2;ratioP2
61911;SDS011;49973;52.084;5.412;2022-11-15T00:02:39;41.10;;;16.93;;
61911;SDS011;49973;52.084;5.412;2022-11-15T00:05:26;44.50;;;16.13;;
61911;SDS011;49973;52.084;5.412;2022-11-15T00:08:13;38.17;;;17.10;;
61911;SDS011;49973;52.084;5.412;2022-11-15T00:11:01;54.87;;;18.73;;
61911;SDS011;49973;52.084;5.412;2022-11-15T00:13:50;58.43;;;17.60;;
61911;SDS011;49973;52.084;5.412;2022-11-15T00:16:37;53.50;;;18.23;;
61911;SDS011;49973;52.084;5.412;2022-11-15T00:19:24;65.40;;;20.33;;
61911;SDS011;49973;52.084;5.412;2022-11-15T00:22:11;58.63;;;19.73;;
61911;SDS011;49973;52.084;5.412;2022-11-15T00:24:58;49.83;;;19.17;;
61911;SDS011;49973;52.084;5.412;2022-11-15T00:27:45;70.43;;;21.30;;
61911;SDS011;49973;52.084;5.412;2022-11-15T00:30:34;60.13;;;20.70;;
61911;SDS011;49973;52.084;5.412;2022-11-15T00:33:21;61.10;;;20.13;;
61911;SDS011;49973;52.084;5.412;2022-11-15T00:36:09;60.20;;;20.60;;
61911;SDS011;49973;52.084;5.412;2022-11-15T00:38:56;64.67;;;20.67;;
61911;SDS011;49973;52.084;5.412;2022-11-15T00:41:43;63.93;;;20.87;;
61911;SDS011;49973;52.084;5.412;2022-11-15T00:44:30;81.97;;;22.90;;
61911;SDS011;49973;52.084;5.412;2022-11-15T00:47:19;68.23;;;20.87;;
61911;SDS011;49973;52.084;5.412;2022-11-15T00:50:06;61.10;;;20.77;;
61911;SDS011;49973;52.084;5.412;2022-11-15T00:52:59;69.60;;;20.93;;
61911;SDS011;49973;52.084;5.412;2022-11-15T00:55:46;75.27;;;21.73;;
61911;SDS011;49973;52.084;5.412;2022-11-15T00:58:33;62.60;;;21.27;;
61911;SDS011;49973;52.084;5.412;2022-11-15T01:01:20;63.37;;;19.97;;
61911;SDS011;49973;52.084;5.412;2022-11-15T01:04:09;59.57;;;22.17;;
61911;SDS011;49973;52.084;5.412;2022-11-15T01:06:56;62.27;;;22.03;;
61911;SDS011;49973;52.084;5.412;2022-11-15T01:09:43;67.67;;;23.67;;
61911;SDS011;49973;52.084;5.412;2022-11-15T01:12:30;60.07;;;19.60;;
61911;SDS011;49973;52.084;5.412;2022-11-15T01:15:18;69.37;;;20.93;;
61911;SDS011;49973;52.084;5.412;2022-11-15T01:18:05;74.17;;;23.30;;
61911;SDS011;49973;52.084;5.412;2022-11-15T01:20:53;82.67;;;22.30;;
61911;SDS011;49973;52.084;5.412;2022-11-15T01:23:40;70.33;;;22.03;;
61911;SDS011;49973;52.084;5.412;2022-11-15T01:26:27;63.60;;;22.57;;
61911;SDS011;49973;52.084;5.412;2022-11-15T01:29:14;70.97;;;21.90;;
61911;SDS011;49973;52.084;5.412;2022-11-15T01:32:01;79.07;;;21.03;;
61911;SDS011;49973;52.084;5.412;2022-11-15T01:34:49;70.63;;;22.67;;
61911;SDS011;49973;52.084;5.412;2022-11-15T01:37:37;66.73;;;23.07;;
61911;SDS011;49973;52.084;5.412;2022-11-15T01:40:24;69.23;;;22.57;;
61911;SDS011;49973;52.084;5.412;2022-11-15T01:43:22;77.23;;;22.87;;
61911;SDS011;49973;52.084;5.412;2022-11-15T01:46:15;71.47;;;22.50;;
61911;SDS011;49973;52.084;5.412;2022-11-15T01:49:11;69.07;;;21.60;;
61911;SDS011;49973;52.084;5.412;2022-11-15T01:52:03;59.57;;;20.17;;
61911;SDS011;49973;52.084;5.412;2022-11-15T01:54:54;81.33;;;23.07;;
61911;SDS011;49973;52.084;5.412;2022-11-15T01:57:46;70.53;;;21.43;;
61911;SDS011;49973;52.084;5.412;2022-11-15T02:00:37;66.53;;;22.40;;
61911;SDS011;49973;52.084;5.412;2022-11-15T02:03:26;70.47;;;22.47;;
61911;SDS011;49973;52.084;5.412;2022-11-15T02:06:20;70.07;;;22.30;;
61911;SDS011;49973;52.084;5.412;2022-11-15T02:09:08;65.33;;;21.60;;
61911;SDS011;49973;52.084;5.412;2022-11-15T02:11:57;77.77;;;23.40;;
61911;SDS011;49973;52.084;5.412;2022-11-15T02:14:46;69.30;;;21.13;;
61911;SDS011;49973;52.084;5.412;2022-11-15T02:17:44;67.13;;;22.10;;
61911;SDS011;49973;52.084;5.412;2022-11-15T02:20:41;67.60;;;21.13;;
61911;SDS011;49973;52.084;5.412;2022-11-15T02:30:38;61.57;;;22.53;;
61911;SDS011;49973;52.084;5.412;2022-11-15T02:33:32;60.13;;;20.07;;
61911;SDS011;49973;52.084;5.412;2022-11-15T02:36:30;51.77;;;21.40;;
61911;SDS011;49973;52.084;5.412;2022-11-15T02:39:25;59.90;;;21.77;;
61911;SDS011;49973;52.084;5.412;2022-11-15T02:42:19;60.77;;;21.00;;
61911;SDS011;49973;52.084;5.412;2022-11-15T02:45:51;55.10;;;22.07;;
61911;SDS011;49973;52.084;5.412;2022-11-15T02:48:43;48.97;;;20.67;;
61911;SDS011;49973;52.084;5.412;2022-11-15T02:51:32;60.70;;;21.13;;
61911;SDS011;49973;52.084;5.412;2022-11-15T02:54:20;44.73;;;19.70;;
61911;SDS011;49973;52.084;5.412;2022-11-15T02:57:10;47.03;;;18.47;;
61911;SDS011;49973;52.084;5.412;2022-11-15T03:00:06;50.13;;;19.97;;
61911;SDS011;49973;52.084;5.412;2022-11-15T03:02:58;44.67;;;19.03;;
61911;SDS011;49973;52.084;5.412;2022-11-15T03:06:03;50.43;;;19.27;;
61911;SDS011;49973;52.084;5.412;2022-11-15T03:09:02;49.00;;;19.10;;
61911;SDS011;49973;52.084;5.412;2022-11-15T03:11:56;44.03;;;17.50;;
61911;SDS011;49973;52.084;5.412;2022-11-15T03:14:50;44.63;;;18.00;;
61911;SDS011;49973;52.084;5.412;2022-11-15T03:17:41;37.27;;;17.80;;
61911;SDS011;49973;52.084;5.412;2022-11-15T03:20:36;40.73;;;17.67;;
61911;SDS011;49973;52.084;5.412;2022-11-15T03:23:24;48.50;;;18.60;;
61911;SDS011;49973;52.084;5.412;2022-11-15T03:26:12;42.67;;;18.30;;
61911;SDS011;49973;52.084;5.412;2022-11-15T03:29:03;49.33;;;18.43;;
61911;SDS011;49973;52.084;5.412;2022-11-15T03:31:58;45.40;;;19.43;;
61911;SDS011;49973;52.084;5.412;2022-11-15T03:34:51;42.47;;;19.20;;
61911;SDS011;49973;52.084;5.412;2022-11-15T03:37:44;47.80;;;18.20;;
61911;SDS011;49973;52.084;5.412;2022-11-15T03:40:37;43.10;;;18.13;;
61911;SDS011;49973;52.084;5.412;2022-11-15T03:43:29;52.73;;;19.47;;
61911;SDS011;49973;52.084;5.412;2022-11-15T03:46:22;46.53;;;18.13;;
61911;SDS011;49973;52.084;5.412;2022-11-15T03:49:14;44.27;;;18.80;;
61911;SDS011;49973;52.084;5.412;2022-11-15T03:52:06;41.03;;;17.80;;
61911;SDS011;49973;52.084;5.412;2022-11-15T03:54:55;40.97;;;18.63;;
61911;SDS011;49973;52.084;5.412;2022-11-15T03:57:43;41.57;;;20.43;;
61911;SDS011;49973;52.084;5.412;2022-11-15T04:00:30;41.13;;;18.80;;
61911;SDS011;49973;52.084;5.412;2022-11-15T04:03:17;40.20;;;18.67;;
61911;SDS011;49973;52.084;5.412;2022-11-15T04:06:04;39.00;;;18.33;;
61911;SDS011;49973;52.084;5.412;2022-11-15T04:08:51;45.00;;;17.97;;
61911;SDS011;49973;52.084;5.412;2022-11-15T04:11:40;45.03;;;18.67;;
61911;SDS011;49973;52.084;5.412;2022-11-15T04:14:27;41.77;;;17.97;;
61911;SDS011;49973;52.084;5.412;2022-11-15T04:17:14;40.87;;;18.20;;
61911;SDS011;49973;52.084;5.412;2022-11-15T04:20:02;45.93;;;19.13;;
61911;SDS011;49973;52.084;5.412;2022-11-15T04:23:08;39.50;;;17.87;;
61911;SDS011;49973;52.084;5.412;2022-11-15T04:26:15;36.23;;;17.13;;
61911;SDS011;49973;52.084;5.412;2022-11-15T04:29:05;41.83;;;18.53;;
61911;SDS011;49973;52.084;5.412;2022-11-15T04:32:10;41.77;;;18.33;;
61911;SDS011;49973;52.084;5.412;2022-11-15T04:34:57;35.53;;;17.40;;
61911;SDS011;49973;52.084;5.412;2022-11-15T04:37:44;42.90;;;18.40;;
61911;SDS011;49973;52.084;5.412;2022-11-15T04:40:34;40.60;;;17.40;;
61911;SDS011;49973;52.084;5.412;2022-11-15T04:43:21;34.27;;;18.00;;
61911;SDS011;49973;52.084;5.412;2022-11-15T04:46:10;34.43;;;17.07;;
61911;SDS011;49973;52.084;5.412;2022-11-15T04:48:57;36.30;;;17.33;;
61911;SDS011;49973;52.084;5.412;2022-11-15T04:51:45;35.47;;;17.83;;
61911;SDS011;49973;52.084;5.412;2022-11-15T04:54:32;39.90;;;17.23;;
61911;SDS011;49973;52.084;5.412;2022-11-15T04:57:19;35.33;;;18.10;;
61911;SDS011;49973;52.084;5.412;2022-11-15T05:00:07;45.47;;;17.77;;
61911;SDS011;49973;52.084;5.412;2022-11-15T05:02:58;41.53;;;18.77;;
61911;SDS011;49973;52.084;5.412;2022-11-15T05:06:02;42.07;;;17.70;;
61911;SDS011;49973;52.084;5.412;2022-11-15T05:08:49;39.67;;;18.67;;
61911;SDS011;49973;52.084;5.412;2022-11-15T05:11:36;36.93;;;16.97;;
61911;SDS011;49973;52.084;5.412;2022-11-15T05:14:23;32.90;;;16.73;;
61911;SDS011;49973;52.084;5.412;2022-11-15T05:17:10;42.37;;;17.10;;
61911;SDS011;49973;52.084;5.412;2022-11-15T05:19:59;41.33;;;18.17;;
61911;SDS011;49973;52.084;5.412;2022-11-15T05:22:46;29.87;;;15.80;;
61911;SDS011;49973;52.084;5.412;2022-11-15T05:25:35;37.20;;;17.07;;
61911;SDS011;49973;52.084;5.412;2022-11-15T05:28:22;31.57;;;16.57;;
61911;SDS011;49973;52.084;5.412;2022-11-15T05:31:10;32.53;;;16.20;;
61911;SDS011;49973;52.084;5.412;2022-11-15T05:33:59;40.13;;;18.53;;
61911;SDS011;49973;52.084;5.412;2022-11-15T05:36:48;35.27;;;16.77;;
61911;SDS011;49973;52.084;5.412;2022-11-15T05:39:35;38.00;;;17.30;;
61911;SDS011;49973;52.084;5.412;2022-11-15T05:42:22;33.67;;;17.20;;
61911;SDS011;49973;52.084;5.412;2022-11-15T05:45:11;37.83;;;17.37;;
61911;SDS011;49973;52.084;5.412;2022-11-15T05:47:58;33.43;;;16.33;;
61911;SDS011;49973;52.084;5.412;2022-11-15T05:50:47;36.60;;;17.40;;
61911;SDS011;49973;52.084;5.412;2022-11-15T05:53:36;36.57;;;17.37;;
61911;SDS011;49973;52.084;5.412;2022-11-15T05:56:23;37.10;;;16.37;;
61911;SDS011;49973;52.084;5.412;2022-11-15T05:59:11;36.57;;;16.90;;
61911;SDS011;49973;52.084;5.412;2022-11-15T06:01:59;36.63;;;16.67;;
61911;SDS011;49973;52.084;5.412;2022-11-15T06:04:46;39.77;;;17.90;;
61911;SDS011;49973;52.084;5.412;2022-11-15T06:07:33;36.37;;;17.43;;
61911;SDS011;49973;52.084;5.412;2022-11-15T06:10:21;43.30;;;16.20;;
61911;SDS011;49973;52.084;5.412;2022-11-15T06:13:09;30.47;;;16.40;;
61911;SDS011;49973;52.084;5.412;2022-11-15T06:15:56;33.40;;;17.37;;
61911;SDS011;49973;52.084;5.412;2022-11-15T06:18:43;36.50;;;16.97;;
61911;SDS011;49973;52.084;5.412;2022-11-15T06:21:30;38.33;;;18.10;;
61911;SDS011;49973;52.084;5.412;2022-11-15T06:24:17;35.37;;;17.93;;
61911;SDS011;49973;52.084;5.412;2022-11-15T06:27:06;31.50;;;16.77;;
61911;SDS011;49973;52.084;5.412;2022-11-15T06:29:53;44.80;;;19.20;;
61911;SDS011;49973;52.084;5.412;2022-11-15T06:32:40;37.97;;;17.63;;
61911;SDS011;49973;52.084;5.412;2022-11-15T06:35:27;41.40;;;17.90;;
61911;SDS011;49973;52.084;5.412;2022-11-15T06:38:15;41.77;;;16.93;;
61911;SDS011;49973;52.084;5.412;2022-11-15T06:41:03;33.13;;;16.83;;
61911;SDS011;49973;52.084;5.412;2022-11-15T06:43:53;39.77;;;18.27;;
61911;SDS011;49973;52.084;5.412;2022-11-15T06:46:40;41.33;;;17.53;;
61911;SDS011;49973;52.084;5.412;2022-11-15T06:49:27;27.13;;;15.90;;
61911;SDS011;49973;52.084;5.412;2022-11-15T06:52:14;31.93;;;16.57;;
61911;SDS011;49973;52.084;5.412;2022-11-15T06:55:03;44.13;;;17.90;;
61911;SDS011;49973;52.084;5.412;2022-11-15T06:57:51;34.63;;;16.80;;
61911;SDS011;49973;52.084;5.412;2022-11-15T07:00:41;43.53;;;17.73;;
61911;SDS011;49973;52.084;5.412;2022-11-15T07:03:28;37.13;;;17.70;;
61911;SDS011;49973;52.084;5.412;2022-11-15T07:06:16;30.87;;;16.33;;
61911;SDS011;49973;52.084;5.412;2022-11-15T07:09:03;35.03;;;17.67;;
61911;SDS011;49973;52.084;5.412;2022-11-15T07:11:50;34.63;;;16.57;;
61911;SDS011;49973;52.084;5.412;2022-11-15T07:14:37;38.87;;;18.03;;
61911;SDS011;49973;52.084;5.412;2022-11-15T07:17:26;35.43;;;17.37;;
61911;SDS011;49973;52.084;5.412;2022-11-15T07:20:13;31.07;;;16.23;;
61911;SDS011;49973;52.084;5.412;2022-11-15T07:23:01;39.20;;;17.00;;
61911;SDS011;49973;52.084;5.412;2022-11-15T07:25:49;32.80;;;16.83;;
61911;SDS011;49973;52.084;5.412;2022-11-15T07:28:36;31.60;;;16.10;;
61911;SDS011;49973;52.084;5.412;2022-11-15T07:31:23;28.77;;;15.13;;
61911;SDS011;49973;52.084;5.412;2022-11-15T07:34:12;29.20;;;16.70;;
61911;SDS011;49973;52.084;5.412;2022-11-15T07:36:59;32.80;;;16.07;;
61911;SDS011;49973;52.084;5.412;2022-11-15T07:39:46;32.67;;;15.63;;
61911;SDS011;49973;52.084;5.412;2022-11-15T07:42:33;30.87;;;14.23;;
61911;SDS011;49973;52.084;5.412;2022-11-15T07:45:39;31.10;;;15.37;;
61911;SDS011;49973;52.084;5.412;2022-11-15T07:48:28;35.37;;;15.37;;
61911;SDS011;49973;52.084;5.412;2022-11-15T07:51:29;32.63;;;14.63;;
61911;SDS011;49973;52.084;5.412;2022-11-15T07:54:16;37.67;;;15.00;;
61911;SDS011;49973;52.084;5.412;2022-11-15T07:57:04;29.07;;;14.23;;
61911;SDS011;49973;52.084;5.412;2022-11-15T07:59:52;26.10;;;14.77;;
61911;SDS011;49973;52.084;5.412;2022-11-15T08:02:40;26.80;;;13.57;;
61911;SDS011;49973;52.084;5.412;2022-11-15T08:05:27;26.50;;;13.50;;
61911;SDS011;49973;52.084;5.412;2022-11-15T08:08:16;38.37;;;14.77;;
61911;SDS011;49973;52.084;5.412;2022-11-15T08:11:03;36.33;;;13.93;;
61911;SDS011;49973;52.084;5.412;2022-11-15T08:13:51;25.10;;;13.60;;
61911;SDS011;49973;52.084;5.412;2022-11-15T08:16:38;29.20;;;11.90;;
61911;SDS011;49973;52.084;5.412;2022-11-15T08:19:24;27.27;;;13.27;;
61911;SDS011;49973;52.084;5.412;2022-11-15T08:22:12;27.70;;;12.67;;
61911;SDS011;49973;52.084;5.412;2022-11-15T08:25:00;22.67;;;11.63;;
61911;SDS011;49973;52.084;5.412;2022-11-15T08:27:50;25.37;;;12.37;;
61911;SDS011;49973;52.084;5.412;2022-11-15T08:30:39;26.90;;;12.60;;
61911;SDS011;49973;52.084;5.412;2022-11-15T08:33:28;23.97;;;11.87;;
61911;SDS011;49973;52.084;5.412;2022-11-15T08:36:16;23.27;;;11.70;;
61911;SDS011;49973;52.084;5.412;2022-11-15T08:39:03;20.27;;;10.93;;
61911;SDS011;49973;52.084;5.412;2022-11-15T08:41:52;22.60;;;12.10;;
61911;SDS011;49973;52.084;5.412;2022-11-15T08:44:39;24.90;;;11.77;;
61911;SDS011;49973;52.084;5.412;2022-11-15T08:47:26;20.03;;;10.27;;
61911;SDS011;49973;52.084;5.412;2022-11-15T08:50:14;24.37;;;12.13;;
61911;SDS011;49973;52.084;5.412;2022-11-15T08:53:05;22.53;;;11.70;;
61911;SDS011;49973;52.084;5.412;2022-11-15T08:55:53;24.23;;;11.47;;
61911;SDS011;49973;52.084;5.412;2022-11-15T08:58:42;22.60;;;11.53;;
61911;SDS011;49973;52.084;5.412;2022-11-15T09:01:29;23.33;;;11.90;;
61911;SDS011;49973;52.084;5.412;2022-11-15T09:04:17;22.27;;;10.83;;
61911;SDS011;49973;52.084;5.412;2022-11-15T09:07:04;21.40;;;12.77;;
61911;SDS011;49973;52.084;5.412;2022-11-15T09:09:51;19.03;;;10.10;;
61911;SDS011;49973;52.084;5.412;2022-11-15T09:12:38;20.47;;;10.63;;
61911;SDS011;49973;52.084;5.412;2022-11-15T09:15:26;19.07;;;10.63;;
61911;SDS011;49973;52.084;5.412;2022-11-15T09:18:14;15.80;;;10.17;;
61911;SDS011;49973;52.084;5.412;2022-11-15T09:21:02;18.27;;;10.77;;
61911;SDS011;49973;52.084;5.412;2022-11-15T09:23:50;17.03;;;9.00;;
61911;SDS011;49973;52.084;5.412;2022-11-15T09:26:39;17.53;;;9.83;;
61911;SDS011;49973;52.084;5.412;2022-11-15T09:29:26;14.47;;;8.43;;
61911;SDS011;49973;52.084;5.412;2022-11-15T09:32:15;17.20;;;8.67;;
61911;SDS011;49973;52.084;5.412;2022-11-15T09:35:03;17.17;;;8.73;;
61911;SDS011;49973;52.084;5.412;2022-11-15T09:37:50;17.37;;;8.27;;
61911;SDS011;49973;52.084;5.412;2022-11-15T09:40:41;12.93;;;7.43;;
61911;SDS011;49973;52.084;5.412;2022-11-15T09:43:32;17.10;;;7.90;;
61911;SDS011;49973;52.084;5.412;2022-11-15T09:46:32;12.00;;;6.87;;
61911;SDS011;49973;52.084;5.412;2022-11-15T09:49:14;11.03;;;6.27;;
61911;SDS011;49973;52.084;5.412;2022-11-15T09:52:02;15.47;;;6.13;;
61911;SDS011;49973;52.084;5.412;2022-11-15T09:54:33;14.20;;;7.37;;
61911;SDS011;49973;52.084;5.412;2022-11-15T09:57:20;14.10;;;6.77;;
61911;SDS011;49973;52.084;5.412;2022-11-15T09:59:55;17.00;;;5.47;;
61911;SDS011;49973;52.084;5.412;2022-11-15T10:02:54;8.73;;;5.63;;
61911;SDS011;49973;52.084;5.412;2022-11-15T10:05:32;9.13;;;6.70;;
61911;SDS011;49973;52.084;5.412;2022-11-15T10:08:11;10.93;;;5.73;;
61911;SDS011;49973;52.084;5.412;2022-11-15T10:10:51;9.93;;;5.17;;
61911;SDS011;49973;52.084;5.412;2022-11-15T10:13:48;9.00;;;5.77;;
61911;SDS011;49973;52.084;5.412;2022-11-15T10:16:24;12.70;;;5.83;;
61911;SDS011;49973;52.084;5.412;2022-11-15T10:19:06;9.70;;;5.00;;
61911;SDS011;49973;52.084;5.412;2022-11-15T10:21:46;7.37;;;4.17;;
61911;SDS011;49973;52.084;5.412;2022-11-15T10:24:24;4.67;;;3.67;;
61911;SDS011;49973;52.084;5.412;2022-11-15T10:26:55;5.53;;;4.37;;
61911;SDS011;49973;52.084;5.412;2022-11-15T10:29:24;6.17;;;4.03;;
61911;SDS011;49973;52.084;5.412;2022-11-15T10:31:53;8.40;;;3.63;;
61911;SDS011;49973;52.084;5.412;2022-11-15T10:34:22;4.63;;;2.80;;
61911;SDS011;49973;52.084;5.412;2022-11-15T10:36:56;9.67;;;3.90;;
61911;SDS011;49973;52.084;5.412;2022-11-15T10:39:27;5.60;;;4.00;;
61911;SDS011;49973;52.084;5.412;2022-11-15T10:41:56;10.63;;;2.90;;
61911;SDS011;49973;52.084;5.412;2022-11-15T10:44:25;4.00;;;2.80;;
61911;SDS011;49973;52.084;5.412;2022-11-15T10:47:05;4.37;;;3.03;;
61911;SDS011;49973;52.084;5.412;2022-11-15T10:50:06;8.43;;;3.27;;
61911;SDS011;49973;52.084;5.412;2022-11-15T10:52:55;5.20;;;2.93;;
61911;SDS011;49973;52.084;5.412;2022-11-15T10:55:28;7.43;;;3.10;;
61911;SDS011;49973;52.084;5.412;2022-11-15T10:58:01;4.33;;;2.60;;
61911;SDS011;49973;52.084;5.412;2022-11-15T11:00:35;3.20;;;2.77;;
61911;SDS011;49973;52.084;5.412;2022-11-15T11:03:06;3.87;;;2.93;;
61911;SDS011;49973;52.084;5.412;2022-11-15T11:06:05;3.90;;;2.83;;
61911;SDS011;49973;52.084;5.412;2022-11-15T11:08:37;3.40;;;2.20;;
61911;SDS011;49973;52.084;5.412;2022-11-15T11:11:06;6.70;;;2.63;;
61911;SDS011;49973;52.084;5.412;2022-11-15T11:13:36;3.50;;;2.70;;
61911;SDS011;49973;52.084;5.412;2022-11-15T11:16:09;5.07;;;2.43;;
61911;SDS011;49973;52.084;5.412;2022-11-15T11:18:52;2.93;;;2.23;;
61911;SDS011;49973;52.084;5.412;2022-11-15T11:21:39;5.13;;;2.47;;
61911;SDS011;49973;52.084;5.412;2022-11-15T11:24:18;7.13;;;3.10;;
61911;SDS011;49973;52.084;5.412;2022-11-15T11:26:59;5.20;;;2.90;;
61911;SDS011;49973;52.084;5.412;2022-11-15T11:29:45;2.90;;;2.10;;
61911;SDS011;49973;52.084;5.412;2022-11-15T11:32:40;8.43;;;2.43;;
61911;SDS011;49973;52.084;5.412;2022-11-15T11:35:27;3.93;;;2.40;;
61911;SDS011;49973;52.084;5.412;2022-11-15T11:38:05;3.73;;;2.17;;
61911;SDS011;49973;52.084;5.412;2022-11-15T11:40:51;3.77;;;2.13;;
61911;SDS011;49973;52.084;5.412;2022-11-15T11:43:30;4.63;;;1.90;;
61911;SDS011;49973;52.084;5.412;2022-11-15T11:46:16;7.33;;;2.23;;
61911;SDS011;49973;52.084;5.412;2022-11-15T11:48:57;6.90;;;2.60;;
61911;SDS011;49973;52.084;5.412;2022-11-15T11:51:32;4.10;;;1.80;;
61911;SDS011;49973;52.084;5.412;2022-11-15T11:54:10;3.87;;;2.00;;
61911;SDS011;49973;52.084;5.412;2022-11-15T11:56:44;4.33;;;2.03;;
61911;SDS011;49973;52.084;5.412;2022-11-15T11:59:16;3.27;;;1.40;;
61911;SDS011;49973;52.084;5.412;2022-11-15T12:01:51;3.23;;;1.50;;
61911;SDS011;49973;52.084;5.412;2022-11-15T12:04:20;2.37;;;1.57;;
61911;SDS011;49973;52.084;5.412;2022-11-15T12:06:56;1.50;;;1.17;;
61911;SDS011;49973;52.084;5.412;2022-11-15T12:09:30;1.30;;;0.83;;
61911;SDS011;49973;52.084;5.412;2022-11-15T12:12:06;3.40;;;1.20;;
61911;SDS011;49973;52.084;5.412;2022-11-15T12:14:41;1.00;;;0.90;;
61911;SDS011;49973;52.084;5.412;2022-11-15T12:17:13;2.07;;;0.80;;
61911;SDS011;49973;52.084;5.412;2022-11-15T12:19:47;3.40;;;1.20;;
61911;SDS011;49973;52.084;5.412;2022-11-15T12:22:17;6.20;;;1.27;;
61911;SDS011;49973;52.084;5.412;2022-11-15T12:24:50;2.33;;;1.30;;
61911;SDS011;49973;52.084;5.412;2022-11-15T12:27:26;8.07;;;1.53;;
61911;SDS011;49973;52.084;5.412;2022-11-15T12:30:02;6.10;;;1.20;;
61911;SDS011;49973;52.084;5.412;2022-11-15T12:32:36;2.50;;;0.80;;
61911;SDS011;49973;52.084;5.412;2022-11-15T12:35:20;3.50;;;1.00;;
61911;SDS011;49973;52.084;5.412;2022-11-15T12:37:52;3.53;;;1.20;;
61911;SDS011;49973;52.084;5.412;2022-11-15T12:40:28;0.90;;;0.80;;
61911;SDS011;49973;52.084;5.412;2022-11-15T12:46:05;4.10;;;1.17;;
61911;SDS011;49973;52.084;5.412;2022-11-15T12:48:46;9.17;;;1.60;;
61911;SDS011;49973;52.084;5.412;2022-11-15T12:51:20;4.13;;;1.17;;
61911;SDS011;49973;52.084;5.412;2022-11-15T12:53:50;1.50;;;1.03;;
61911;SDS011;49973;52.084;5.412;2022-11-15T12:56:21;11.50;;;1.50;;
61911;SDS011;49973;52.084;5.412;2022-11-15T12:58:53;2.60;;;1.13;;
61911;SDS011;49973;52.084;5.412;2022-11-15T13:04:26;5.00;;;0.97;;
61911;SDS011;49973;52.084;5.412;2022-11-15T13:06:56;1.63;;;1.10;;
61911;SDS011;49973;52.084;5.412;2022-11-15T13:15:30;5.47;;;1.73;;
61911;SDS011;49973;52.084;5.412;2022-11-15T13:18:25;3.20;;;1.30;;
61911;SDS011;49973;52.084;5.412;2022-11-15T13:21:17;4.23;;;1.50;;
61911;SDS011;49973;52.084;5.412;2022-11-15T13:24:12;1.97;;;1.20;;
61911;SDS011;49973;52.084;5.412;2022-11-15T13:26:43;3.70;;;1.50;;
61911;SDS011;49973;52.084;5.412;2022-11-15T13:29:15;2.70;;;1.23;;
61911;SDS011;49973;52.084;5.412;2022-11-15T13:31:46;4.23;;;2.80;;
61911;SDS011;49973;52.084;5.412;2022-11-15T13:37:27;2.70;;;1.80;;
61911;SDS011;49973;52.084;5.412;2022-11-15T13:43:15;4.30;;;1.43;;
61911;SDS011;49973;52.084;5.412;2022-11-15T13:46:07;4.93;;;1.50;;
61911;SDS011;49973;52.084;5.412;2022-11-15T13:48:40;8.53;;;1.93;;
61911;SDS011;49973;52.084;5.412;2022-11-15T13:51:12;1.40;;;1.30;;
61911;SDS011;49973;52.084;5.412;2022-11-15T13:53:45;2.10;;;1.40;;
61911;SDS011;49973;52.084;5.412;2022-11-15T13:56:17;5.03;;;1.23;;
61911;SDS011;49973;52.084;5.412;2022-11-15T13:58:47;4.57;;;1.43;;
61911;SDS011;49973;52.084;5.412;2022-11-15T14:01:17;2.83;;;1.53;;
61911;SDS011;49973;52.084;5.412;2022-11-15T14:03:49;8.27;;;1.33;;
61911;SDS011;49973;52.084;5.412;2022-11-15T14:06:23;4.53;;;1.40;;
61911;SDS011;49973;52.084;5.412;2022-11-15T14:08:58;8.13;;;1.87;;
61911;SDS011;49973;52.084;5.412;2022-11-15T14:11:50;5.67;;;1.97;;
61911;SDS011;49973;52.084;5.412;2022-11-15T14:14:21;4.30;;;1.20;;
61911;SDS011;49973;52.084;5.412;2022-11-15T14:16:52;5.47;;;1.27;;
61911;SDS011;49973;52.084;5.412;2022-11-15T14:19:35;1.73;;;1.17;;
61911;SDS011;49973;52.084;5.412;2022-11-15T14:22:11;2.83;;;1.30;;
61911;SDS011;49973;52.084;5.412;2022-11-15T14:24:44;3.63;;;1.43;;
61911;SDS011;49973;52.084;5.412;2022-11-15T14:27:18;5.33;;;2.33;;
61911;SDS011;49973;52.084;5.412;2022-11-15T14:29:51;2.93;;;1.73;;
61911;SDS011;49973;52.084;5.412;2022-11-15T14:32:22;6.80;;;1.63;;
61911;SDS011;49973;52.084;5.412;2022-11-15T14:34:54;4.33;;;1.10;;
61911;SDS011;49973;52.084;5.412;2022-11-15T14:37:25;1.40;;;1.23;;
61911;SDS011;49973;52.084;5.412;2022-11-15T14:39:55;5.50;;;1.80;;
61911;SDS011;49973;52.084;5.412;2022-11-15T14:42:24;5.97;;;1.80;;
61911;SDS011;49973;52.084;5.412;2022-11-15T14:44:53;7.40;;;1.77;;
61911;SDS011;49973;52.084;5.412;2022-11-15T14:47:21;2.80;;;1.10;;
61911;SDS011;49973;52.084;5.412;2022-11-15T14:49:50;5.03;;;1.73;;
61911;SDS011;49973;52.084;5.412;2022-11-15T14:52:27;2.20;;;1.30;;
61911;SDS011;49973;52.084;5.412;2022-11-15T14:54:59;5.73;;;1.60;;
61911;SDS011;49973;52.084;5.412;2022-11-15T14:57:29;8.67;;;1.60;;
61911;SDS011;49973;52.084;5.412;2022-11-15T14:59:57;3.03;;;1.47;;
61911;SDS011;49973;52.084;5.412;2022-11-15T15:02:38;6.90;;;2.10;;
61911;SDS011;49973;52.084;5.412;2022-11-15T15:05:15;3.43;;;1.60;;
61911;SDS011;49973;52.084;5.412;2022-11-15T15:07:47;4.73;;;1.57;;
61911;SDS011;49973;52.084;5.412;2022-11-15T15:10:16;9.07;;;1.87;;
61911;SDS011;49973;52.084;5.412;2022-11-15T15:13:05;6.87;;;2.30;;
61911;SDS011;49973;52.084;5.412;2022-11-15T15:15:36;7.10;;;2.30;;
61911;SDS011;49973;52.084;5.412;2022-11-15T15:18:05;2.77;;;1.87;;
61911;SDS011;49973;52.084;5.412;2022-11-15T15:20:35;3.00;;;2.20;;
61911;SDS011;49973;52.084;5.412;2022-11-15T15:23:10;7.50;;;2.30;;
61911;SDS011;49973;52.084;5.412;2022-11-15T15:25:44;4.57;;;1.93;;
61911;SDS011;49973;52.084;5.412;2022-11-15T15:28:14;8.90;;;2.03;;
61911;SDS011;49973;52.084;5.412;2022-11-15T15:30:43;5.60;;;1.90;;
61911;SDS011;49973;52.084;5.412;2022-11-15T15:33:12;6.37;;;1.80;;
61911;SDS011;49973;52.084;5.412;2022-11-15T15:35:42;12.17;;;2.50;;
61911;SDS011;49973;52.084;5.412;2022-11-15T15:38:12;12.93;;;2.13;;
61911;SDS011;49973;52.084;5.412;2022-11-15T15:40:42;4.10;;;1.53;;
61911;SDS011;49973;52.084;5.412;2022-11-15T15:43:10;3.93;;;1.50;;
61911;SDS011;49973;52.084;5.412;2022-11-15T15:45:39;5.83;;;1.40;;
61911;SDS011;49973;52.084;5.412;2022-11-15T15:48:10;3.63;;;1.87;;
61911;SDS011;49973;52.084;5.412;2022-11-15T15:50:40;4.80;;;1.80;;
61911;SDS011;49973;52.084;5.412;2022-11-15T15:53:10;3.77;;;1.27;;
61911;SDS011;49973;52.084;5.412;2022-11-15T15:55:40;4.77;;;1.67;;
61911;SDS011;49973;52.084;5.412;2022-11-15T15:58:09;4.13;;;1.23;;
61911;SDS011;49973;52.084;5.412;2022-11-15T16:00:38;4.23;;;2.40;;
61911;SDS011;49973;52.084;5.412;2022-11-15T16:03:07;4.13;;;1.10;;
61911;SDS011;49973;52.084;5.412;2022-11-15T16:05:35;4.50;;;1.27;;
61911;SDS011;49973;52.084;5.412;2022-11-15T16:08:04;6.33;;;1.70;;
61911;SDS011;49973;52.084;5.412;2022-11-15T16:10:33;2.90;;;1.40;;
61911;SDS011;49973;52.084;5.412;2022-11-15T16:13:04;2.73;;;1.40;;
61911;SDS011;49973;52.084;5.412;2022-11-15T16:15:33;4.40;;;1.40;;
61911;SDS011;49973;52.084;5.412;2022-11-15T16:18:03;2.83;;;1.70;;
61911;SDS011;49973;52.084;5.412;2022-11-15T16:20:35;3.77;;;1.37;;
61911;SDS011;49973;52.084;5.412;2022-11-15T16:23:06;2.43;;;1.20;;
61911;SDS011;49973;52.084;5.412;2022-11-15T16:25:37;2.50;;;1.43;;
61911;SDS011;49973;52.084;5.412;2022-11-15T16:28:21;6.77;;;1.60;;
61911;SDS011;49973;52.084;5.412;2022-11-15T16:30:58;1.63;;;1.20;;
61911;SDS011;49973;52.084;5.412;2022-11-15T16:33:28;5.03;;;1.30;;
61911;SDS011;49973;52.084;5.412;2022-11-15T16:35:57;4.90;;;1.50;;